Penney Farms, Florida
Current Conditions -  °F | °C
As of 1:50 PM on Monday 20 Oct 2014 (Local Time) from KVQQ Reporting Station
Scattered Clouds Scattered Clouds  
Wind Chill: 81°   Ceiling: Unl
Heat Index: 82°   Visibility: 10mi
Dew Point: 64°   Wind: 6mph
Humidity: 58%   Direction: 90°E
Pressure: 30.02"   Gusts: NA
Location:  29.98°N, 81.81°W
Report Text: KVQQ 201750Z 09005KT 10SM SCT045 27/18 A3002
Loading
Personal Weather Stations






























Interactive Weather Map
Tropical Storm Tracking
New forecast layout! Learn more

10-Day Weather Forecast

Advertisements
Track Severe Weather on mobile